• Join FlightAware (Why Join?)
  • Login
  • US Flag 
Rudolph Flight #1: Scheduled 
08:18PM EST


 

Airport Tracker/Info


-or-


 

Live Flight TrackerFlight Track Log ✈ SKW5564 ✈ 05-Jul-2013 ✈ KDEN - KLNK

Flight Track Log - Related Links

Times and Time Zones

All times are in EDT time to prevent confusion due to time zone crossing. See the SKW5564 flight status page for this flight to view local times or setup timezone preferences in your user account.

Time Position Orientation Groundspeed Altitude Reporting Facility
EDT Latitude Longitude Course Direction KTS MPH feet Rate Location/Type
06:35PM 39.8667 -104.1697 90° East  Level FlightAware Approximate
06:36PM 39.8667 -104.0036 90° East  Level FlightAware Approximate
06:37PM 39.8667 -103.8376 90° East  Level FlightAware Approximate
06:38PM 39.8870 -103.6762 85° East  Level FlightAware Approximate
06:39PM 39.8973 -103.5106 85° East  Level FlightAware Approximate
06:40PM 39.9128 -103.3457 82° East  Level FlightAware Approximate
06:41PM 39.9301 -103.1811 82° East  Level FlightAware Approximate
06:42PM 39.9491 -103.0167 81° East  Level FlightAware Approximate
06:43PM 39.9685 -102.8523 81° East  Level FlightAware Approximate
06:44PM 39.9879 -102.6879 82° East  Level FlightAware Approximate
06:45PM 40.0045 -102.5230 82° East  Level FlightAware Approximate
06:46PM 40.0219 -102.3581 81° East  Level FlightAware Approximate
06:47PM 40.0372 -102.1934 78° East  Level FlightAware Approximate
06:48PM 40.0643 -102.0307 78° East  Level FlightAware Approximate
06:49PM 40.0689 -101.8647 81° East  Level FlightAware Approximate
06:50PM 40.0883 -101.7001 81° East  Level FlightAware Approximate
06:51PM 40.1047 -101.5349 85° East  Level FlightAware Approximate
06:52PM 40.1165 -101.3689 85° East  Level FlightAware Approximate
06:53PM 40.1435 -101.2060 78° East  Level FlightAware Approximate
06:54PM 40.1610 -101.0410 83° East  Level FlightAware Approximate
06:55PM 40.1754 -100.8753 83° East  Level FlightAware Approximate
06:56PM 40.1894 -100.7094 84° East  Level FlightAware Approximate
06:57PM 40.2080 -100.5447 75° East  Level FlightAware Approximate
06:58PM 40.2414 -100.3836 75° East  Level FlightAware Approximate
06:59PM 40.2745 -100.2223 75° East  Level FlightAware Approximate
07:00PM 40.3074 -100.0609 75° East  Level FlightAware Approximate
07:01PM 40.3401 -99.8993 75° East  Level FlightAware Approximate
07:02PM 40.3725 -99.7375 75° East  Level FlightAware Approximate
07:03PM 40.4016 -99.5746 78° East  Level FlightAware Approximate
07:04PM 40.4287 -99.4110 78° East  Level FlightAware Approximate
07:05PM 40.4569 -99.2489 75° East  Level FlightAware Approximate
07:06PM 40.4916 -99.0877 74° East  Level FlightAware Approximate
07:07PM 40.5184 -98.9239 76° East  Level FlightAware Approximate
07:08PM 40.5480 -98.7608 76° East  Level FlightAware Approximate
07:09PM 40.5781 -98.5978 74° East  Level FlightAware Approximate
07:10PM 40.6133 -98.4365 74° East  Level FlightAware Approximate
07:11PM 40.6482 -98.2750 74° East  Level FlightAware Approximate
07:12PM 40.6748 -98.1106 78° East  Level FlightAware Approximate
07:13PM 40.7010 -97.9462 72° East  Level FlightAware Approximate
07:14PM 40.7385 -97.7856 78° East  Level FlightAware Approximate
07:15PM 40.7659 -97.6212 78° East  Level FlightAware Approximate
07:16PM 40.7906 -97.4565 78° East  Level FlightAware Approximate
07:17PM 40.8172 -97.2922 76° East  Level FlightAware Approximate
07:18PM 40.8478 -97.1287 76° East  Level FlightAware Approximate
07:19PM 40.8736 -96.9636 78° East  Level FlightAware Approximate
07:20PM 40.9000 -96.7999 90° East  Level FlightAware Approximate
07:21PM 40.8500 -96.7500 180° South  Level FlightAware Approximate
07:22PM 40.8509 -96.7591 180° South  Level Estimated
07:23PM 40.8500 -96.7500 180° South  Level FlightAware Approximate
07:24PM 40.8509 -96.7591 180° South  Level Estimated
07:25PM 40.8500 -96.7500 180° South  Level FlightAware Approximate
07:26PM 40.8509 -96.7591 180° South  Level Estimated
07:27PM 40.8500 -96.7500 180° South  Level FlightAware Approximate
07:28PM 40.8509 -96.7591 180° South  Level Estimated
07:29PM 40.8500 -96.7500 180° South  Level FlightAware Approximate
07:30PM 40.8509 -96.7591 180° South  Level Estimated
07:31PM 40.8500 -96.7500 180° South  Level FlightAware Approximate
07:32PM 40.8509 -96.7591 180° South  Level Estimated
07:33PM 40.8500 -96.7500 180° South  Level FlightAware Approximate
07:34PM 40.8509 -96.7591 180° South  Level Estimated
07:35PM 40.8500 -96.7500 180° South  Level FlightAware Approximate